LSZH/ZRH METAR and TAF weather

Enter ICAO airport designator
Station Type Date Time Source
LSZH METAR 2019/10/15 19:20 UTC NOAA

LSZH 151920Z 21006KT 9999 RA FEW018 SCT024 BKN055 11/09 Q1014 TEMPO 4000 BKN012


Station Type Date Time Source
LSZH Decoded METAR 2019/10/15 19:20 UTC NOAA

Zurich-Kloten, Switzerland (LSZH) 47-29N 008-32E 432M
Oct 15, 2019 - 03:20 PM EDT / 2019.10.15 1920 UTC
Wind: from the SSW (210 degrees) at 7 MPH (6 KT):0
Visibility: greater than 7 mile(s):0
Sky conditions: mostly cloudy
Weather: rain
Temperature: 51 F (11 C)
Dew Point: 48 F (9 C)
Relative Humidity: 87%
Pressure (altimeter): 29.94 in. Hg (1014 hPa)
ob: LSZH 151920Z 21006KT 9999 RA FEW018 SCT024 BKN055 11/09 Q1014 TEMPO 4000 BKN012
cycle: 19

Station Type Date Time Source
LSZH TAF 2019/10/15 18:33 UTC NOAA

TAF LSZH 151725Z 1518/1624 26007KT 9999 SCT020 BKN040 TX17/1615Z TN07/1604Z
TEMPO 1518/1524 RA BKN020 PROB40
TEMPO 1518/1519 4000 +RA BKN014
BECMG 1602/1604 2000 BCFG FEW020 PROB40 1604/1607 0800 PRFG NSC
BECMG 1607/1609 CAVOK

Example: see airport list